AirNav   Air Wisconsin Airman Trainee
 
 1476 users online  

C81 Campbell Airport
Grayslake, Illinois, USA

GOING TO GRAYSLAKE?


FAA INFORMATION EFFECTIVE 25 APRIL 2019

Location

FAA Identifier: C81
Lat/Long: 42-19-28.6000N / 088-04-26.7170W
42-19.476667N / 088-04.445283W
42.3246111 / -88.0740881
(estimated)
Elevation: 788 ft. / 240.2 m (surveyed)
Variation: 02W (1995)
From city: 2 miles SW of GRAYSLAKE, IL
Time zone: UTC -5 (UTC -6 during Standard Time)
Zip code: 60030

Airport Operations

Airport use: Open to the public
Activation date: 02/1964
Control tower: no
ARTCC: CHICAGO CENTER
FSS: KANKAKEE FLIGHT SERVICE STATION
NOTAMs facility: IKK (NOTAM-D service available)
Attendance: MON-FRI 0800-1700, ALL SAT-SUN 0730-1700
Pattern altitude: 1588 ft. MSL
Wind indicator: lighted
Segmented circle: no
Beacon: white-green (lighted land airport)
Operates sunset to sunrise.

Airport Communications

CTAF/UNICOM: 122.7
CHICAGO APPROACH: 120.55
CHICAGO DEPARTURE: 120.55
WX ASOS at UGN (11 nm NE): PHONE 847-782-0876
WX ASOS at PWK (15 nm SE): PHONE 847-465-0291
WX ASOS at ENW (18 nm N): PHONE 262-652-7730

Nearby radio navigation aids

VOR radial/distance  VOR name  Freq  Var
OBKr321/8.2NORTHBROOK VOR/DME113.0002W
DPAr023/28.8DUPAGE VOR/DME108.4002E

 
NDB name  Hdg/Dist  Freq  Var  ID
CODEE190/14.338902WEN . -.
WAUKE238/14.737903WUG ..- --.
LAKE LAWN136/32.140402WLVV .-.. ...- ...-

Airport Services

Fuel available: 100LL
Parking: tiedowns
Airframe service: MAJOR
Powerplant service: MAJOR
Bottled oxygen: NONE
Bulk oxygen: NONE

Runway Information

Runway 6/24

Dimensions: 3573 x 40 ft. / 1089 x 12 m
SW 1000 FT PORTION TURF-GRVL.
Surface: asphalt/turf, in fair condition
PAVEMENT HAS SEVERAL AREAS OF DEPRESSIONS. RY EDGES DROP OFF IN EXCESS OF 2 INCHES.
RUNWAY 6  RUNWAY 24
Latitude: 42-19.355167N42-19.664050N
Longitude: 088-04.784833W088-04.110083W
Elevation: 779.0 ft.778.0 ft.
Traffic pattern: leftleft
Runway heading: 060 magnetic, 058 true240 magnetic, 238 true
Displaced threshold: no301 ft.
RWY 24 NSTD DSPLCD THLD WHITE STRIPE MKGS ONLY. MARKED FOR RY 06 ON SW BEGINNING OF PAVED SURFACE.
Markings: numbers only, in good conditionnumbers only, in good condition
Runway end identifier lights: nono
Touchdown point: yes, no lightsyes, no lights
Obstructions: 25 ft. trees, 385 ft. from runway, 88 ft. right of centerline, 15:1 slope to clear78 ft. tree, 1540 ft. from runway, 86 ft. left of centerline, 17:1 slope to clear
+15' ROAD ADJ RY END L & R.

Runway 9/27

Dimensions: 3270 x 40 ft. / 997 x 12 m
Surface: asphalt, in fair condition
Runway edge lights: non-standard
RY 09/27 NSTD LIRL; SPACING & LGT INTST VARIES.
RUNWAY 9  RUNWAY 27
Latitude: 42-19.442133N42-19.440650N
Longitude: 088-04.803517W088-04.078117W
Elevation: 777.0 ft.788.0 ft.
Traffic pattern: leftleft
Runway heading: 092 magnetic, 090 true272 magnetic, 270 true
Markings: numbers only, in good conditionnumbers only, in good condition
Visual slope indicator: tri-color VASI on left (4.00 degrees glide path)
NSTD TRIL RYS 09 & 27 ONLY OPERATIONAL DUSK-DAWN.
tri-color VASI on left (4.00 degrees glide path)
Runway end identifier lights: nono
Touchdown point: yes, no lightsyes, no lights

Airport Ownership and Management from official FAA records

Ownership: Privately-owned
Owner: KANE ILL PROPERTIES
PO BOX 474, SUITE 401
GRAYSLAKE, IL 60030
Phone 847-201-1618
Manager: PETER KANE
2420 W STEEPLE CHASE CIRCLE
LIBERTYVILLE, IL 60048
Phone 847-223-2200
EMAIL ADDRESS: PJK201@AOL.COM (ALL LOWER CASE)

Airport Operational Statistics

Aircraft operations: avg 82/day *
67% transient general aviation
33% local general aviation
* for 12-month period ending 31 January 2016

Additional Remarks

NO TOUCH & GO LNDG PERMITTED.
UNLGTD POWER LINES 167 FT AGL 3/4 MILE S OF RY 09/27.
BE ALERT MODEL AIRCRAFT FLYING 1/2 MILE SE OF RY 27 THRSHLD.
NUMEROUS MIGRATORY BIRDS INVOF ARPT.
TWYS WITH NSTD SPACING AND CLEARANCES INVOF RAMP APRON.
FOR CD CTC CHICAGO APCH AT 847-289-0926.

Instrument Procedures

NOTE: All procedures below are presented as PDF files. If you need a reader for these files, you should download the free Adobe Reader.

NOT FOR NAVIGATION. Please procure official charts for flight.
FAA instrument procedures published for use from 25 April 2019 at 0901Z to 23 May 2019 at 0900Z.

 
IAPs - Instrument Approach Procedures
RNAV (GPS)-B **CHANGED**   download (152KB)
NOTE: Special Take-Off Minimums/Departure Procedures apply   download (201KB)

Other nearby airports with instrument procedures:

KUGN - Waukegan National Airport (11 nm NE)
3CK - Lake in the Hills Airport (13 nm SW)
10C - Galt Field Airport (14 nm W)
KPWK - Chicago Executive Airport (15 nm SE)
KENW - Kenosha Regional Airport (18 nm N)
 
Loc | Ops | Rwys | IFR | FBO | Links
Com | Nav | Svcs | Stats | Notes
Area around C81 (Campbell Airport)
 
Road maps at: MapQuest Bing Google
 
Aerial photo
WARNING: Photo may not be current or correct
Aerial photo of C81 (Campbell Airport)
Photo taken 05-Jul-2009

Do you have a better or more recent aerial photo of Campbell Airport that you would like to share? If so, please send us your photo.

 
Sectional chart

 
Airport distance calculator
Flying to Campbell Airport? Find the distance to fly.

From to C81

Sunrise and sunset
Times for 25-Apr-2019
 Local
(UTC-5)
 Zulu
(UTC)
Morning civil twilight05:2710:27
Sunrise05:5710:57
Sunset19:4400:44
Evening civil twilight20:1401:14

Current date and time
Zulu (UTC)  25-Apr-2019 14:40:43
Local (UTC-5)  25-Apr-2019 09:40:43
 
METAR
KUGN 
11nm NE 
251355Z 00000KT 10SM CLR 13/04 A2983 RMK AO2 SLP101 T01330039
KPWK 
15nm SE 
251352Z 00000KT 10SM CLR 14/02 A2983 RMK AO2 SLP101 T01440022
KENW 
18nm N 
251353Z 20004KT 10SM CLR 14/06 A2982 RMK AO2 SLP101 T01390056
K06C 
20nm S 
251415Z AUTO 00000KT 10SM CLR 14/02 A2981 RMK AO2 T01410020
KORD 
21nm S 
251351Z 00000KT 10SM FEW250 14/03 A2980 RMK AO2 SLP091 T01390028
TAF
KENW 
18nm N 
251120Z 2512/2612 20005KT P6SM FEW250 FM251800 12007KT P6SM FEW120 BKN250 FM252300 35008KT P6SM VCSH BKN050 FM260200 36011G18KT 6SM -SHRA BR OVC030 FM260600 35010KT P6SM OVC040
KORD 
21nm S 
251126Z 2512/2618 VRB03KT P6SM SCT250 FM251900 08009KT P6SM SCT040 BKN250 FM260000 04008KT P6SM SCT040 BKN100 FM260300 36014G21KT 5SM -SHRA SCT020 OVC030 FM260800 34012KT P6SM SCT080 FM261400 32015G24KT P6SM SKC
NOTAMs
Click for the latest NOTAMs
NOTAMs are issued by the DoD/FAA and will open in a separate window not controlled by AirNav.

 

 
 

FBO, Fuel Providers, and Aircraft Ground Support

  
 Business Name 
 
 Contact 
 
 Services / Description 
 
Fuel Prices
 
Comments
  
Campbell Airport, LLC no information available

If you are affiliated with Campbell Airport, LLC and would like to show here your services, contact info, web link, logo, and more, click here
100LL
SS $4.39 
 Updated 17-Apr-2019
 
   1 read write
SS=Self service
Update Fuel Prices
 

Would you like to see your business listed on this page?

 If your business provides an interesting product or service to pilots, flight crews, aircraft, or users of the Campbell Airport, you should consider listing it here.  To start the listing process, click on the button below
 
Add a business
 

Other Pages about Campbell Airport

Update a link
 
Copyright © AirNav, LLC. All rights reserved. Privacy Policy  Contact